sensor_id;sensor_type;location;lat;lon;timestamp;temperature;humidity
32147;DHT22;32190;49.112;8.598;2023-07-22T00:02:18;25.20;41.80
32147;DHT22;32190;49.112;8.598;2023-07-22T00:08:08;25.20;41.90
32147;DHT22;32190;49.112;8.598;2023-07-22T00:13:59;25.20;42.00
32147;DHT22;32190;49.112;8.598;2023-07-22T00:19:49;25.10;42.00
32147;DHT22;32190;49.112;8.598;2023-07-22T00:25:40;25.00;42.10
32147;DHT22;32190;49.112;8.598;2023-07-22T00:38:02;24.80;42.70
32147;DHT22;32190;49.112;8.598;2023-07-22T00:43:54;24.70;42.50
32147;DHT22;32190;49.112;8.598;2023-07-22T00:49:47;24.60;42.80
32147;DHT22;32190;49.112;8.598;2023-07-22T00:55:39;24.40;43.20
32147;DHT22;32190;49.112;8.598;2023-07-22T01:01:33;24.10;43.20
32147;DHT22;32190;49.112;8.598;2023-07-22T01:07:23;24.10;43.60
32147;DHT22;32190;49.112;8.598;2023-07-22T01:13:15;24.00;43.50
32147;DHT22;32190;49.112;8.598;2023-07-22T01:19:05;24.00;43.60
32147;DHT22;32190;49.112;8.598;2023-07-22T01:24:57;24.00;43.60
32147;DHT22;32190;49.112;8.598;2023-07-22T01:30:48;24.10;43.80
32147;DHT22;32190;49.112;8.598;2023-07-22T01:36:39;24.00;43.60
32147;DHT22;32190;49.112;8.598;2023-07-22T01:42:30;24.10;43.80
32147;DHT22;32190;49.112;8.598;2023-07-22T01:48:20;24.00;43.90
32147;DHT22;32190;49.112;8.598;2023-07-22T01:54:12;24.00;44.50
32147;DHT22;32190;49.112;8.598;2023-07-22T02:00:03;24.00;43.90
32147;DHT22;32190;49.112;8.598;2023-07-22T02:06:04;24.00;43.90
32147;DHT22;32190;49.112;8.598;2023-07-22T02:11:55;24.00;44.30
32147;DHT22;32190;49.112;8.598;2023-07-22T02:17:45;23.90;43.90
32147;DHT22;32190;49.112;8.598;2023-07-22T02:23:36;23.80;43.90
32147;DHT22;32190;49.112;8.598;2023-07-22T02:29:26;23.70;44.00
32147;DHT22;32190;49.112;8.598;2023-07-22T02:35:17;23.60;44.20
32147;DHT22;32190;49.112;8.598;2023-07-22T02:41:07;23.50;44.30
32147;DHT22;32190;49.112;8.598;2023-07-22T02:46:58;23.40;44.30
32147;DHT22;32190;49.112;8.598;2023-07-22T02:52:48;23.40;44.50
32147;DHT22;32190;49.112;8.598;2023-07-22T02:58:39;23.30;44.50
32147;DHT22;32190;49.112;8.598;2023-07-22T03:04:32;23.20;44.40
32147;DHT22;32190;49.112;8.598;2023-07-22T03:10:23;23.10;44.60
32147;DHT22;32190;49.112;8.598;2023-07-22T03:16:15;23.00;44.70
32147;DHT22;32190;49.112;8.598;2023-07-22T03:22:06;22.90;44.80
32147;DHT22;32190;49.112;8.598;2023-07-22T03:27:56;22.80;44.90
32147;DHT22;32190;49.112;8.598;2023-07-22T03:33:47;22.70;44.90
32147;DHT22;32190;49.112;8.598;2023-07-22T03:39:38;22.60;45.00
32147;DHT22;32190;49.112;8.598;2023-07-22T03:45:29;22.40;45.20
32147;DHT22;32190;49.112;8.598;2023-07-22T03:51:19;22.20;45.50
32147;DHT22;32190;49.112;8.598;2023-07-22T03:57:10;22.00;45.70
32147;DHT22;32190;49.112;8.598;2023-07-22T04:03:01;21.90;45.90
32147;DHT22;32190;49.112;8.598;2023-07-22T04:08:51;21.80;46.00
32147;DHT22;32190;49.112;8.598;2023-07-22T04:14:42;21.80;46.20
32147;DHT22;32190;49.112;8.598;2023-07-22T04:20:33;21.70;46.10
32147;DHT22;32190;49.112;8.598;2023-07-22T04:26:23;21.80;46.20
32147;DHT22;32190;49.112;8.598;2023-07-22T04:32:14;21.90;46.10
32147;DHT22;32190;49.112;8.598;2023-07-22T04:38:04;22.00;46.00
32147;DHT22;32190;49.112;8.598;2023-07-22T04:43:55;21.90;45.90
32147;DHT22;32190;49.112;8.598;2023-07-22T04:49:45;21.90;46.00
32147;DHT22;32190;49.112;8.598;2023-07-22T04:55:37;21.80;46.20
32147;DHT22;32190;49.112;8.598;2023-07-22T05:01:28;21.80;46.50
32147;DHT22;32190;49.112;8.598;2023-07-22T05:07:18;21.70;46.60
32147;DHT22;32190;49.112;8.598;2023-07-22T05:13:09;21.70;46.80
32147;DHT22;32190;49.112;8.598;2023-07-22T05:18:59;21.80;46.90
32147;DHT22;32190;49.112;8.598;2023-07-22T05:24:50;21.90;46.60
32147;DHT22;32190;49.112;8.598;2023-07-22T05:30:40;22.00;46.60
32147;DHT22;32190;49.112;8.598;2023-07-22T05:36:31;22.20;46.70
32147;DHT22;32190;49.112;8.598;2023-07-22T05:42:22;22.40;46.60
32147;DHT22;32190;49.112;8.598;2023-07-22T05:48:12;22.50;46.60
32147;DHT22;32190;49.112;8.598;2023-07-22T05:54:03;22.70;46.70
32147;DHT22;32190;49.112;8.598;2023-07-22T05:59:53;22.80;46.80
32147;DHT22;32190;49.112;8.598;2023-07-22T06:05:44;22.80;46.60
32147;DHT22;32190;49.112;8.598;2023-07-22T06:11:34;22.70;47.20
32147;DHT22;32190;49.112;8.598;2023-07-22T06:17:25;22.70;47.20
32147;DHT22;32190;49.112;8.598;2023-07-22T06:23:15;22.70;47.20
32147;DHT22;32190;49.112;8.598;2023-07-22T06:29:06;22.80;47.10
32147;DHT22;32190;49.112;8.598;2023-07-22T06:34:57;22.90;46.80
32147;DHT22;32190;49.112;8.598;2023-07-22T06:40:48;23.00;47.00
32147;DHT22;32190;49.112;8.598;2023-07-22T06:46:38;23.10;46.40
32147;DHT22;32190;49.112;8.598;2023-07-22T06:52:29;23.20;46.70
32147;DHT22;32190;49.112;8.598;2023-07-22T06:58:19;23.30;46.50
32147;DHT22;32190;49.112;8.598;2023-07-22T07:04:10;23.40;46.10
32147;DHT22;32190;49.112;8.598;2023-07-22T07:10:00;23.60;46.30
32147;DHT22;32190;49.112;8.598;2023-07-22T07:15:51;23.70;46.10
32147;DHT22;32190;49.112;8.598;2023-07-22T07:21:42;23.90;46.30
32147;DHT22;32190;49.112;8.598;2023-07-22T07:27:32;24.10;45.60
32147;DHT22;32190;49.112;8.598;2023-07-22T07:33:23;24.30;45.50
32147;DHT22;32190;49.112;8.598;2023-07-22T07:39:13;24.40;45.40
32147;DHT22;32190;49.112;8.598;2023-07-22T07:45:04;24.30;45.20
32147;DHT22;32190;49.112;8.598;2023-07-22T07:50:55;24.40;45.30
32147;DHT22;32190;49.112;8.598;2023-07-22T07:56:45;24.50;45.50
32147;DHT22;32190;49.112;8.598;2023-07-22T08:02:36;24.60;45.30
32147;DHT22;32190;49.112;8.598;2023-07-22T08:08:26;24.70;45.30
32147;DHT22;32190;49.112;8.598;2023-07-22T08:14:17;24.90;45.40
32147;DHT22;32190;49.112;8.598;2023-07-22T08:20:08;25.00;45.20
32147;DHT22;32190;49.112;8.598;2023-07-22T08:26:00;25.20;45.30
32147;DHT22;32190;49.112;8.598;2023-07-22T08:31:51;25.40;44.60
32147;DHT22;32190;49.112;8.598;2023-07-22T08:37:41;25.50;44.30
32147;DHT22;32190;49.112;8.598;2023-07-22T08:43:34;25.60;43.80
32147;DHT22;32190;49.112;8.598;2023-07-22T08:49:28;25.70;43.50
32147;DHT22;32190;49.112;8.598;2023-07-22T08:55:19;25.90;43.60
32147;DHT22;32190;49.112;8.598;2023-07-22T09:01:10;26.00;43.30
32147;DHT22;32190;49.112;8.598;2023-07-22T09:07:01;26.10;43.10
32147;DHT22;32190;49.112;8.598;2023-07-22T09:12:52;26.20;43.10
32147;DHT22;32190;49.112;8.598;2023-07-22T09:18:43;26.20;43.20
32147;DHT22;32190;49.112;8.598;2023-07-22T09:24:33;26.20;42.50
32147;DHT22;32190;49.112;8.598;2023-07-22T09:30:34;26.30;42.60
32147;DHT22;32190;49.112;8.598;2023-07-22T09:36:25;26.30;42.40
32147;DHT22;32190;49.112;8.598;2023-07-22T09:42:24;26.40;42.40
32147;DHT22;32190;49.112;8.598;2023-07-22T09:48:15;26.50;41.90
32147;DHT22;32190;49.112;8.598;2023-07-22T09:54:07;26.70;41.80
32147;DHT22;32190;49.112;8.598;2023-07-22T09:59:57;26.80;41.80
32147;DHT22;32190;49.112;8.598;2023-07-22T10:05:48;26.90;41.60
32147;DHT22;32190;49.112;8.598;2023-07-22T10:11:40;26.90;41.60
32147;DHT22;32190;49.112;8.598;2023-07-22T10:17:31;27.00;41.50
32147;DHT22;32190;49.112;8.598;2023-07-22T10:23:22;27.10;41.50
32147;DHT22;32190;49.112;8.598;2023-07-22T10:29:15;27.10;41.40
32147;DHT22;32190;49.112;8.598;2023-07-22T10:35:11;27.20;41.40
32147;DHT22;32190;49.112;8.598;2023-07-22T10:41:11;27.30;41.20
32147;DHT22;32190;49.112;8.598;2023-07-22T10:47:03;27.30;40.80
32147;DHT22;32190;49.112;8.598;2023-07-22T10:53:01;27.40;41.00
32147;DHT22;32190;49.112;8.598;2023-07-22T11:04:43;27.60;40.40
32147;DHT22;32190;49.112;8.598;2023-07-22T11:10:34;27.80;39.80
32147;DHT22;32190;49.112;8.598;2023-07-22T11:16:28;27.90;39.40
32147;DHT22;32190;49.112;8.598;2023-07-22T11:22:19;28.00;38.80
32147;DHT22;32190;49.112;8.598;2023-07-22T11:28:09;28.10;38.50
32147;DHT22;32190;49.112;8.598;2023-07-22T11:34:00;28.20;38.50
32147;DHT22;32190;49.112;8.598;2023-07-22T11:39:51;28.30;38.30
32147;DHT22;32190;49.112;8.598;2023-07-22T11:45:41;28.40;38.30
32147;DHT22;32190;49.112;8.598;2023-07-22T11:51:32;28.40;37.60
32147;DHT22;32190;49.112;8.598;2023-07-22T11:57:24;28.50;37.80
32147;DHT22;32190;49.112;8.598;2023-07-22T12:03:14;28.50;37.90
32147;DHT22;32190;49.112;8.598;2023-07-22T12:09:07;28.60;37.70
32147;DHT22;32190;49.112;8.598;2023-07-22T12:15:15;28.70;37.70
32147;DHT22;32190;49.112;8.598;2023-07-22T12:21:06;28.80;37.60
32147;DHT22;32190;49.112;8.598;2023-07-22T12:26:56;28.80;37.60
32147;DHT22;32190;49.112;8.598;2023-07-22T12:32:47;28.90;37.70
32147;DHT22;32190;49.112;8.598;2023-07-22T12:38:38;29.00;37.50
32147;DHT22;32190;49.112;8.598;2023-07-22T12:44:28;29.00;37.20
32147;DHT22;32190;49.112;8.598;2023-07-22T12:50:19;29.10;36.80
32147;DHT22;32190;49.112;8.598;2023-07-22T12:56:09;29.20;36.80
32147;DHT22;32190;49.112;8.598;2023-07-22T13:02:00;29.30;36.30
32147;DHT22;32190;49.112;8.598;2023-07-22T13:07:51;29.40;36.30
32147;DHT22;32190;49.112;8.598;2023-07-22T13:13:42;29.60;36.00
32147;DHT22;32190;49.112;8.598;2023-07-22T13:19:32;29.60;35.50
32147;DHT22;32190;49.112;8.598;2023-07-22T13:25:23;29.90;34.90
32147;DHT22;32190;49.112;8.598;2023-07-22T13:31:13;29.90;34.90
32147;DHT22;32190;49.112;8.598;2023-07-22T13:37:04;29.90;34.40
32147;DHT22;32190;49.112;8.598;2023-07-22T13:42:56;29.90;34.40
32147;DHT22;32190;49.112;8.598;2023-07-22T13:48:46;30.00;34.30
32147;DHT22;32190;49.112;8.598;2023-07-22T13:54:37;30.10;34.00
32147;DHT22;32190;49.112;8.598;2023-07-22T14:00:28;30.30;34.10
32147;DHT22;32190;49.112;8.598;2023-07-22T14:06:19;30.30;34.20
32147;DHT22;32190;49.112;8.598;2023-07-22T14:12:09;30.40;34.10
32147;DHT22;32190;49.112;8.598;2023-07-22T14:18:00;30.50;34.20
32147;DHT22;32190;49.112;8.598;2023-07-22T14:23:50;30.50;33.80
32147;DHT22;32190;49.112;8.598;2023-07-22T14:29:41;30.50;33.90
32147;DHT22;32190;49.112;8.598;2023-07-22T14:35:31;30.60;33.50
32147;DHT22;32190;49.112;8.598;2023-07-22T14:41:23;30.60;33.40
32147;DHT22;32190;49.112;8.598;2023-07-22T14:47:13;30.60;33.50
32147;DHT22;32190;49.112;8.598;2023-07-22T14:53:04;30.60;33.30
32147;DHT22;32190;49.112;8.598;2023-07-22T14:58:55;30.60;33.70
32147;DHT22;32190;49.112;8.598;2023-07-22T15:04:45;30.60;33.00
32147;DHT22;32190;49.112;8.598;2023-07-22T15:10:36;30.60;33.60
32147;DHT22;32190;49.112;8.598;2023-07-22T15:16:27;30.70;33.70
32147;DHT22;32190;49.112;8.598;2023-07-22T15:22:17;30.70;33.30
32147;DHT22;32190;49.112;8.598;2023-07-22T15:28:08;30.80;33.00
32147;DHT22;32190;49.112;8.598;2023-07-22T15:33:58;30.90;33.00
32147;DHT22;32190;49.112;8.598;2023-07-22T15:39:49;31.00;32.40
32147;DHT22;32190;49.112;8.598;2023-07-22T15:45:40;31.00;32.40
32147;DHT22;32190;49.112;8.598;2023-07-22T15:51:30;31.10;32.30
32147;DHT22;32190;49.112;8.598;2023-07-22T15:57:21;31.20;32.00
32147;DHT22;32190;49.112;8.598;2023-07-22T16:03:11;31.20;31.80
32147;DHT22;32190;49.112;8.598;2023-07-22T16:09:04;31.30;31.90
32147;DHT22;32190;49.112;8.598;2023-07-22T16:14:55;31.30;31.60
32147;DHT22;32190;49.112;8.598;2023-07-22T16:20:46;31.30;31.20
32147;DHT22;32190;49.112;8.598;2023-07-22T16:26:36;31.30;31.10
32147;DHT22;32190;49.112;8.598;2023-07-22T16:32:27;31.20;31.20
32147;DHT22;32190;49.112;8.598;2023-07-22T16:38:17;31.20;31.50
32147;DHT22;32190;49.112;8.598;2023-07-22T16:44:08;31.20;31.50
32147;DHT22;32190;49.112;8.598;2023-07-22T16:49:58;31.20;31.30
32147;DHT22;32190;49.112;8.598;2023-07-22T16:55:49;31.20;31.40
32147;DHT22;32190;49.112;8.598;2023-07-22T17:01:39;31.10;31.50
32147;DHT22;32190;49.112;8.598;2023-07-22T17:07:30;31.00;31.30
32147;DHT22;32190;49.112;8.598;2023-07-22T17:13:21;30.90;31.20
32147;DHT22;32190;49.112;8.598;2023-07-22T17:19:11;30.80;31.10
32147;DHT22;32190;49.112;8.598;2023-07-22T17:25:02;30.70;31.40
32147;DHT22;32190;49.112;8.598;2023-07-22T17:30:58;30.60;31.60
32147;DHT22;32190;49.112;8.598;2023-07-22T17:36:48;30.60;31.80
32147;DHT22;32190;49.112;8.598;2023-07-22T17:42:39;30.50;31.80
32147;DHT22;32190;49.112;8.598;2023-07-22T17:48:29;30.50;31.60
32147;DHT22;32190;49.112;8.598;2023-07-22T17:54:20;30.50;32.00
32147;DHT22;32190;49.112;8.598;2023-07-22T18:00:11;30.50;31.50
32147;DHT22;32190;49.112;8.598;2023-07-22T18:06:02;30.40;31.40
32147;DHT22;32190;49.112;8.598;2023-07-22T18:11:56;30.30;31.60
32147;DHT22;32190;49.112;8.598;2023-07-22T18:17:46;30.30;31.80
32147;DHT22;32190;49.112;8.598;2023-07-22T18:23:37;30.20;31.90
32147;DHT22;32190;49.112;8.598;2023-07-22T18:29:27;30.10;31.80
32147;DHT22;32190;49.112;8.598;2023-07-22T18:35:18;30.10;32.40
32147;DHT22;32190;49.112;8.598;2023-07-22T18:41:10;30.00;31.80
32147;DHT22;32190;49.112;8.598;2023-07-22T18:47:00;30.00;32.10
32147;DHT22;32190;49.112;8.598;2023-07-22T18:52:51;29.90;32.30
32147;DHT22;32190;49.112;8.598;2023-07-22T18:58:41;29.80;32.30
32147;DHT22;32190;49.112;8.598;2023-07-22T19:04:33;29.70;32.50
32147;DHT22;32190;49.112;8.598;2023-07-22T19:10:23;29.70;32.70
32147;DHT22;32190;49.112;8.598;2023-07-22T19:16:14;29.60;32.80
32147;DHT22;32190;49.112;8.598;2023-07-22T19:22:05;29.60;32.90
32147;DHT22;32190;49.112;8.598;2023-07-22T19:27:56;29.30;32.80
32147;DHT22;32190;49.112;8.598;2023-07-22T19:33:47;29.20;32.80
32147;DHT22;32190;49.112;8.598;2023-07-22T19:39:37;28.90;33.20
32147;DHT22;32190;49.112;8.598;2023-07-22T19:45:28;28.80;33.40
32147;DHT22;32190;49.112;8.598;2023-07-22T19:51:19;28.70;33.50
32147;DHT22;32190;49.112;8.598;2023-07-22T19:57:10;28.50;33.60
32147;DHT22;32190;49.112;8.598;2023-07-22T20:03:00;28.30;33.60
32147;DHT22;32190;49.112;8.598;2023-07-22T20:08:51;28.10;33.80
32147;DHT22;32190;49.112;8.598;2023-07-22T20:14:42;28.00;34.20
32147;DHT22;32190;49.112;8.598;2023-07-22T20:20:32;27.70;34.20
32147;DHT22;32190;49.112;8.598;2023-07-22T20:26:23;27.50;34.50
32147;DHT22;32190;49.112;8.598;2023-07-22T20:32:13;27.30;34.70
32147;DHT22;32190;49.112;8.598;2023-07-22T20:38:04;27.10;34.90
32147;DHT22;32190;49.112;8.598;2023-07-22T20:43:54;26.80;35.20
32147;DHT22;32190;49.112;8.598;2023-07-22T20:49:45;26.60;35.50
32147;DHT22;32190;49.112;8.598;2023-07-22T20:55:35;26.40;36.30
32147;DHT22;32190;49.112;8.598;2023-07-22T21:01:26;26.20;35.70
32147;DHT22;32190;49.112;8.598;2023-07-22T21:07:16;26.10;36.00
32147;DHT22;32190;49.112;8.598;2023-07-22T21:13:07;26.00;36.20
32147;DHT22;32190;49.112;8.598;2023-07-22T21:18:57;25.90;36.30
32147;DHT22;32190;49.112;8.598;2023-07-22T21:24:48;25.90;36.60
32147;DHT22;32190;49.112;8.598;2023-07-22T21:30:38;25.80;36.60
32147;DHT22;32190;49.112;8.598;2023-07-22T21:36:29;25.90;36.60
32147;DHT22;32190;49.112;8.598;2023-07-22T21:42:20;25.90;36.70
32147;DHT22;32190;49.112;8.598;2023-07-22T21:48:10;25.90;36.80
32147;DHT22;32190;49.112;8.598;2023-07-22T21:54:01;25.90;36.80
32147;DHT22;32190;49.112;8.598;2023-07-22T21:59:51;25.90;36.80
32147;DHT22;32190;49.112;8.598;2023-07-22T22:05:42;26.00;37.00
32147;DHT22;32190;49.112;8.598;2023-07-22T22:11:32;26.00;37.00
32147;DHT22;32190;49.112;8.598;2023-07-22T22:17:23;26.00;36.90
32147;DHT22;32190;49.112;8.598;2023-07-22T22:23:13;26.00;36.90
32147;DHT22;32190;49.112;8.598;2023-07-22T22:29:05;26.00;36.90
32147;DHT22;32190;49.112;8.598;2023-07-22T22:34:56;26.00;37.00
32147;DHT22;32190;49.112;8.598;2023-07-22T22:40:46;26.00;37.00
32147;DHT22;32190;49.112;8.598;2023-07-22T22:46:38;25.90;37.00
32147;DHT22;32190;49.112;8.598;2023-07-22T22:52:28;25.80;37.20
32147;DHT22;32190;49.112;8.598;2023-07-22T22:58:19;25.70;37.30
32147;DHT22;32190;49.112;8.598;2023-07-22T23:04:10;25.60;37.50
32147;DHT22;32190;49.112;8.598;2023-07-22T23:10:00;25.50;37.60
32147;DHT22;32190;49.112;8.598;2023-07-22T23:15:51;25.40;37.70
32147;DHT22;32190;49.112;8.598;2023-07-22T23:21:41;25.30;37.80
32147;DHT22;32190;49.112;8.598;2023-07-22T23:27:32;25.30;37.90
32147;DHT22;32190;49.112;8.598;2023-07-22T23:33:23;25.20;37.90
32147;DHT22;32190;49.112;8.598;2023-07-22T23:39:16;25.10;38.10
32147;DHT22;32190;49.112;8.598;2023-07-22T23:45:07;25.00;38.40
32147;DHT22;32190;49.112;8.598;2023-07-22T23:50:57;24.90;38.60
32147;DHT22;32190;49.112;8.598;2023-07-22T23:56:48;24.80;38.50
